Iolcos Legacy — 9HA2090 — position and weather

sailwx.info

Track history (hours):
 
Tides and Currents Weather Stations Pressure Air Temp Water Temp Dewpoint Dewpoint Depression Visibility Wind Speed Wind Dir Waves Ship Positions

Iolcos Legacy

Last reported at 2017-Nov-17 18:44 UTC. Time now 2017-Nov-19 21:44 UTC.
Position N 35°45' E 014°50'.

Length 229 m; draft 13.1 m.

Type: Cargo ship. MMSI: 249946000.

Date/timePositionNaut miles runAvg speedWind from/ knotsBaromVisibWave heightAir tempDewpointWater temp
2017-Nov-17 18:44N 35°45' E 014°50'413.6
2017-Nov-17 18:28N 35°47' E 014°46'612.4
2017-Nov-17 18:00N 35°49' E 014°40'3 5.6
2017-Nov-17 17:30N 35°50' E 014°36'0 0.4
2017-Nov-17 16:58N 35°50' E 014°36'0 0.0
2017-Nov-17 16:28N 35°50' E 014°36'0 0.0
2017-Nov-17 15:58N 35°50' E 014°36'0 0.0
2017-Nov-17 15:28N 35°50' E 014°36'0 0.0
2017-Nov-17 14:58N 35°50' E 014°36'0 0.0
2017-Nov-17 14:28N 35°50' E 014°36'0 0.0
2017-Nov-17 13:58N 35°50' E 014°36'0 0.0
2017-Nov-17 13:28N 35°50' E 014°36'0 0.1
2017-Nov-17 12:58N 35°50' E 014°36'0 0.1
2017-Nov-17 12:28N 35°50' E 014°36'0 0.0
2017-Nov-17 11:58N 35°50' E 014°36'0 0.0
2017-Nov-17 11:28N 35°50' E 014°36'0 0.0
2017-Nov-17 10:58N 35°50' E 014°36'0 0.1
2017-Nov-17 10:28N 35°50' E 014°36'0 0.0
2017-Nov-17 09:55N 35°50' E 014°36'0 0.0
2017-Nov-17 09:22N 35°50' E 014°36'0 0.0
2017-Nov-17 08:49N 35°50' E 014°36'0 0.1
2017-Nov-17 08:28N 35°50' E 014°36'0 0.0
2017-Nov-17 07:58N 35°50' E 014°36'0 0.1
2017-Nov-17 07:28N 35°50' E 014°36'0 0.0
2017-Nov-17 06:58N 35°50' E 014°36'0 0.1
2017-Nov-17 06:28N 35°50' E 014°36'0 0.0
2017-Nov-17 05:58N 35°50' E 014°36'0 0.0
2017-Nov-17 05:28N 35°50' E 014°36'0 0.0
2017-Nov-17 04:58N 35°50' E 014°36'0 0.0
2017-Nov-17 04:28N 35°50' E 014°36'0 0.0
2017-Nov-17 03:58N 35°50' E 014°36'0 0.0
2017-Nov-17 03:28N 35°50' E 014°36'0 0.1
2017-Nov-17 02:58N 35°50' E 014°36'0 0.6
2017-Nov-17 02:31N 35°49' E 014°36'1 2.8
2017-Nov-17 02:00N 35°51' E 014°37'4 8.3
2017-Nov-17 01:30N 35°55' E 014°37'612.2
2017-Nov-17 01:00N 36°00' E 014°34'713.3
2017-Nov-17 00:30N 36°05' E 014°28'4 8.2
2017-Nov-17 00:00N 36°07' E 014°24'611.9
2017-Nov-16 23:30N 36°11' E 014°18'713.4
2017-Nov-16 23:01N 36°15' E 014°11'713.5
2017-Nov-16 22:30N 36°17' E 014°03'713.5
2017-Nov-16 22:00N 36°20' E 013°56'713.5
2017-Nov-16 21:30N 36°23' E 013°48'713.5
2017-Nov-16 21:00N 36°26' E 013°41'  
2017-Nov-13 22:33N 35°60' W 005°06'116.9
2017-Nov-13 22:30N 35°60' W 005°06'816.8
2017-Nov-13 22:00N 35°59' W 005°17'31612.7
2017-Nov-12 21:13N 32°17' W 009°48'1012.5
2017-Nov-12 20:25N 32°09' W 009°54'512.5
2017-Nov-12 20:00N 32°04' W 009°58'612.4
2017-Nov-12 19:30N 31°59' W 010°02'612.7
2017-Nov-12 19:00N 31°54' W 010°06'612.6
2017-Nov-12 18:30N 31°49' W 010°10'612.2
2017-Nov-12 18:00N 31°44' W 010°14'611.7
2017-Nov-12 17:30N 31°39' W 010°18'611.9
2017-Nov-12 17:00N 31°34' W 010°22'611.9
2017-Nov-12 16:30N 31°29' W 010°27'611.9
2017-Nov-12 16:00N 31°25' W 010°31'612.2
2017-Nov-12 15:29N 31°20' W 010°35'612.3
2017-Nov-12 15:00N 31°15' W 010°39'712.2
2017-Nov-12 14:25N 31°09' W 010°44'512.1
2017-Nov-12 13:59N 31°05' W 010°48'612.2
2017-Nov-12 13:31N 31°00' W 010°52'7213.1
2017-Nov-12 07:59N 30°04' W 011°45'713.1
2017-Nov-12 07:26N 29°58' W 011°50'3312.9
2017-Nov-12 04:51N 29°32' W 012°14'512.9
2017-Nov-12 04:26N 29°28' W 012°18'612.9
2017-Nov-12 03:58N 29°24' W 012°22'713.0
2017-Nov-12 03:26N 29°18' W 012°27'5012.4
2017-Nov-11 23:22N 28°39' W 013°03'412.0
2017-Nov-11 23:00N 28°35' W 013°06'612.3
2017-Nov-11 22:30N 28°31' W 013°10'612.7
2017-Nov-11 22:00N 28°26' W 013°15'712.9
2017-Nov-11 21:30N 28°21' W 013°20'613.1
2017-Nov-11 21:00N 28°16' W 013°25'713.0
2017-Nov-11 20:30N 28°11' W 013°30'2012.9
2017-Nov-11 18:58N 27°57' W 013°45'612.7
2017-Nov-11 18:30N 27°52' W 013°49'612.6
2017-Nov-11 18:00N 27°47' W 013°53'612.4
2017-Nov-11 17:30N 27°42' W 013°57'612.1
2017-Nov-11 17:00N 27°37' W 014°01'612.4
2017-Nov-11 16:30N 27°32' W 014°05'612.9
2017-Nov-11 16:00N 27°26' W 014°09'713.3
2017-Nov-11 15:30N 27°21' W 014°14'613.0
2017-Nov-11 15:00N 27°16' W 014°18'612.9
2017-Nov-11 14:30N 27°11' W 014°22'612.9
2017-Nov-11 14:00N 27°05' W 014°27'612.8
2017-Nov-11 13:30N 27°00' W 014°31'712.7
2017-Nov-11 12:59N 26°54' W 014°35'612.5
2017-Nov-11 12:30N 26°49' W 014°38'612.5
2017-Nov-11 12:00N 26°44' W 014°41'2412.3
2017-Nov-11 10:02N 26°23' W 014°55'212.1
2017-Nov-11 09:50N 26°21' W 014°56'5311.8
2017-Nov-11 05:21N 25°35' W 015°25'411.9
2017-Nov-11 05:00N 25°31' W 015°28'3211.7
2017-Nov-11 02:19N 25°04' W 015°45'412.1
2017-Nov-11 01:56N 25°00' W 015°48'812.0
2017-Nov-11 01:16N 24°53' W 015°52'9512.2
2017-Nov-10 17:25N 23°26' W 016°35'512.6
2017-Nov-10 16:59N 23°21' W 016°37'712.7
2017-Nov-10 16:28N 23°15' W 016°40'612.8
2017-Nov-10 15:59N 23°09' W 016°43'612.8
2017-Nov-10 15:30N 23°04' W 016°46'712.8
2017-Nov-10 14:58N 22°57' W 016°49'612.8
2017-Nov-10 14:30N 22°52' W 016°52'612.9
2017-Nov-10 14:01N 22°46' W 016°55'812.9
2017-Nov-10 13:25N 22°39' W 016°58'612.7
2017-Nov-10 12:59N 22°34' W 017°00'612.7
2017-Nov-10 12:30N 22°29' W 017°03'812.6
2017-Nov-10 11:50N 22°21' W 017°07'412.5
2017-Nov-10 11:31N 22°17' W 017°08'  
Track history (hours):
 
Tides and Currents Weather Stations Pressure Air Temp Water Temp Dewpoint Dewpoint Depression Visibility Wind Speed Wind Dir Waves Ship Positions

Iolcos Legacy

Last reported at 2017-Nov-17 18:44 UTC. Time now 2017-Nov-19 21:44 UTC.
Position N 35°45' E 014°50'.

Length 229 m; draft 13.1 m.

Type: Cargo ship. MMSI: 249946000.

Date/timePositionNaut miles runAvg speedWind from/ knotsBaromVisibWave heightAir tempDewpointWater temp
2017-Nov-17 18:44N 35°45' E 014°50'413.6
2017-Nov-17 18:28N 35°47' E 014°46'612.4
2017-Nov-17 18:00N 35°49' E 014°40'3 5.6
2017-Nov-17 17:30N 35°50' E 014°36'0 0.4
2017-Nov-17 16:58N 35°50' E 014°36'0 0.0
2017-Nov-17 16:28N 35°50' E 014°36'0 0.0
2017-Nov-17 15:58N 35°50' E 014°36'0 0.0
2017-Nov-17 15:28N 35°50' E 014°36'0 0.0
2017-Nov-17 14:58N 35°50' E 014°36'0 0.0
2017-Nov-17 14:28N 35°50' E 014°36'0 0.0
2017-Nov-17 13:58N 35°50' E 014°36'0 0.0
2017-Nov-17 13:28N 35°50' E 014°36'0 0.1
2017-Nov-17 12:58N 35°50' E 014°36'0 0.1
2017-Nov-17 12:28N 35°50' E 014°36'0 0.0
2017-Nov-17 11:58N 35°50' E 014°36'0 0.0
2017-Nov-17 11:28N 35°50' E 014°36'0 0.0
2017-Nov-17 10:58N 35°50' E 014°36'0 0.1
2017-Nov-17 10:28N 35°50' E 014°36'0 0.0
2017-Nov-17 09:55N 35°50' E 014°36'0 0.0
2017-Nov-17 09:22N 35°50' E 014°36'0 0.0
2017-Nov-17 08:49N 35°50' E 014°36'0 0.1
2017-Nov-17 08:28N 35°50' E 014°36'0 0.0
2017-Nov-17 07:58N 35°50' E 014°36'0 0.1
2017-Nov-17 07:28N 35°50' E 014°36'0 0.0
2017-Nov-17 06:58N 35°50' E 014°36'0 0.1
2017-Nov-17 06:28N 35°50' E 014°36'0 0.0
2017-Nov-17 05:58N 35°50' E 014°36'0 0.0
2017-Nov-17 05:28N 35°50' E 014°36'0 0.0
2017-Nov-17 04:58N 35°50' E 014°36'0 0.0
2017-Nov-17 04:28N 35°50' E 014°36'0 0.0
2017-Nov-17 03:58N 35°50' E 014°36'0 0.0
2017-Nov-17 03:28N 35°50' E 014°36'0 0.1
2017-Nov-17 02:58N 35°50' E 014°36'0 0.6
2017-Nov-17 02:31N 35°49' E 014°36'1 2.8
2017-Nov-17 02:00N 35°51' E 014°37'4 8.3
2017-Nov-17 01:30N 35°55' E 014°37'612.2
2017-Nov-17 01:00N 36°00' E 014°34'713.3
2017-Nov-17 00:30N 36°05' E 014°28'4 8.2
2017-Nov-17 00:00N 36°07' E 014°24'611.9
2017-Nov-16 23:30N 36°11' E 014°18'713.4
2017-Nov-16 23:01N 36°15' E 014°11'713.5
2017-Nov-16 22:30N 36°17' E 014°03'713.5
2017-Nov-16 22:00N 36°20' E 013°56'713.5
2017-Nov-16 21:30N 36°23' E 013°48'713.5
2017-Nov-16 21:00N 36°26' E 013°41'  
2017-Nov-13 22:33N 35°60' W 005°06'116.9
2017-Nov-13 22:30N 35°60' W 005°06'816.8
2017-Nov-13 22:00N 35°59' W 005°17'31612.7
2017-Nov-12 21:13N 32°17' W 009°48'1012.5
2017-Nov-12 20:25N 32°09' W 009°54'512.5
2017-Nov-12 20:00N 32°04' W 009°58'612.4
2017-Nov-12 19:30N 31°59' W 010°02'612.7
2017-Nov-12 19:00N 31°54' W 010°06'612.6
2017-Nov-12 18:30N 31°49' W 010°10'612.2
2017-Nov-12 18:00N 31°44' W 010°14'611.7
2017-Nov-12 17:30N 31°39' W 010°18'611.9
2017-Nov-12 17:00N 31°34' W 010°22'611.9
2017-Nov-12 16:30N 31°29' W 010°27'611.9
2017-Nov-12 16:00N 31°25' W 010°31'612.2
2017-Nov-12 15:29N 31°20' W 010°35'612.3
2017-Nov-12 15:00N 31°15' W 010°39'712.2
2017-Nov-12 14:25N 31°09' W 010°44'512.1
2017-Nov-12 13:59N 31°05' W 010°48'612.2
2017-Nov-12 13:31N 31°00' W 010°52'7213.1
2017-Nov-12 07:59N 30°04' W 011°45'713.1
2017-Nov-12 07:26N 29°58' W 011°50'3312.9
2017-Nov-12 04:51N 29°32' W 012°14'512.9
2017-Nov-12 04:26N 29°28' W 012°18'612.9
2017-Nov-12 03:58N 29°24' W 012°22'713.0
2017-Nov-12 03:26N 29°18' W 012°27'5012.4
2017-Nov-11 23:22N 28°39' W 013°03'412.0
2017-Nov-11 23:00N 28°35' W 013°06'612.3
2017-Nov-11 22:30N 28°31' W 013°10'612.7
2017-Nov-11 22:00N 28°26' W 013°15'712.9
2017-Nov-11 21:30N 28°21' W 013°20'613.1
2017-Nov-11 21:00N 28°16' W 013°25'713.0
2017-Nov-11 20:30N 28°11' W 013°30'2012.9
2017-Nov-11 18:58N 27°57' W 013°45'612.7
2017-Nov-11 18:30N 27°52' W 013°49'612.6
2017-Nov-11 18:00N 27°47' W 013°53'612.4
2017-Nov-11 17:30N 27°42' W 013°57'612.1
2017-Nov-11 17:00N 27°37' W 014°01'612.4
2017-Nov-11 16:30N 27°32' W 014°05'612.9
2017-Nov-11 16:00N 27°26' W 014°09'713.3
2017-Nov-11 15:30N 27°21' W 014°14'613.0
2017-Nov-11 15:00N 27°16' W 014°18'612.9
2017-Nov-11 14:30N 27°11' W 014°22'612.9
2017-Nov-11 14:00N 27°05' W 014°27'612.8
2017-Nov-11 13:30N 27°00' W 014°31'712.7
2017-Nov-11 12:59N 26°54' W 014°35'612.5
2017-Nov-11 12:30N 26°49' W 014°38'612.5
2017-Nov-11 12:00N 26°44' W 014°41'2412.3
2017-Nov-11 10:02N 26°23' W 014°55'212.1
2017-Nov-11 09:50N 26°21' W 014°56'5311.8
2017-Nov-11 05:21N 25°35' W 015°25'411.9
2017-Nov-11 05:00N 25°31' W 015°28'3211.7
2017-Nov-11 02:19N 25°04' W 015°45'412.1
2017-Nov-11 01:56N 25°00' W 015°48'812.0
2017-Nov-11 01:16N 24°53' W 015°52'9512.2
2017-Nov-10 17:25N 23°26' W 016°35'512.6
2017-Nov-10 16:59N 23°21' W 016°37'712.7
2017-Nov-10 16:28N 23°15' W 016°40'612.8
2017-Nov-10 15:59N 23°09' W 016°43'612.8
2017-Nov-10 15:30N 23°04' W 016°46'712.8
2017-Nov-10 14:58N 22°57' W 016°49'612.8
2017-Nov-10 14:30N 22°52' W 016°52'612.9
2017-Nov-10 14:01N 22°46' W 016°55'812.9
2017-Nov-10 13:25N 22°39' W 016°58'612.7
2017-Nov-10 12:59N 22°34' W 017°00'612.7
2017-Nov-10 12:30N 22°29' W 017°03'812.6
2017-Nov-10 11:50N 22°21' W 017°07'412.5
2017-Nov-10 11:31N 22°17' W 017°08'  

Dump ship's entire track history